sensor_id;sensor_type;location;lat;lon;timestamp;pressure;altitude;pressure_sealevel;temperature;humidity
31681;BME280;18281;51.364;9.566;2024-02-16T00:00:40;99755.63;;;6.72;100.00
31681;BME280;18281;51.364;9.566;2024-02-16T00:03:24;99755.72;;;6.50;100.00
31681;BME280;18281;51.364;9.566;2024-02-16T00:05:57;99748.50;;;6.56;100.00
31681;BME280;18281;51.364;9.566;2024-02-16T00:08:30;99749.31;;;6.57;100.00
31681;BME280;18281;51.364;9.566;2024-02-16T00:11:05;99750.75;;;6.44;100.00
31681;BME280;18281;51.364;9.566;2024-02-16T00:13:31;99761.53;;;6.36;100.00
31681;BME280;18281;51.364;9.566;2024-02-16T00:15:57;99768.19;;;6.43;100.00
31681;BME280;18281;51.364;9.566;2024-02-16T00:18:25;99768.31;;;6.40;100.00
31681;BME280;18281;51.364;9.566;2024-02-16T00:20:56;99773.16;;;6.49;100.00
31681;BME280;18281;51.364;9.566;2024-02-16T00:23:30;99767.72;;;6.54;100.00
31681;BME280;18281;51.364;9.566;2024-02-16T00:26:02;99759.94;;;6.32;100.00
31681;BME280;18281;51.364;9.566;2024-02-16T00:28:32;99757.34;;;6.32;100.00
31681;BME280;18281;51.364;9.566;2024-02-16T00:31:06;99749.00;;;6.23;100.00
31681;BME280;18281;51.364;9.566;2024-02-16T00:33:34;99758.50;;;6.24;100.00
31681;BME280;18281;51.364;9.566;2024-02-16T00:36:03;99751.16;;;6.34;100.00
31681;BME280;18281;51.364;9.566;2024-02-16T00:38:31;99746.53;;;6.41;100.00
31681;BME280;18281;51.364;9.566;2024-02-16T00:40:57;99740.47;;;6.40;100.00
31681;BME280;18281;51.364;9.566;2024-02-16T00:43:28;99728.03;;;6.27;100.00
31681;BME280;18281;51.364;9.566;2024-02-16T00:45:53;99715.34;;;5.97;100.00
31681;BME280;18281;51.364;9.566;2024-02-16T00:48:29;99720.94;;;5.87;100.00
31681;BME280;18281;51.364;9.566;2024-02-16T00:51:05;99725.66;;;6.00;100.00
31681;BME280;18281;51.364;9.566;2024-02-16T00:53:35;99729.75;;;6.05;100.00
31681;BME280;18281;51.364;9.566;2024-02-16T00:56:01;99730.66;;;6.04;100.00
31681;BME280;18281;51.364;9.566;2024-02-16T00:58:30;99722.75;;;5.85;100.00
31681;BME280;18281;51.364;9.566;2024-02-16T01:00:55;99716.16;;;5.77;100.00
31681;BME280;18281;51.364;9.566;2024-02-16T01:03:23;99719.88;;;5.71;100.00
31681;BME280;18281;51.364;9.566;2024-02-16T01:05:52;99723.53;;;5.87;100.00
31681;BME280;18281;51.364;9.566;2024-02-16T01:08:18;99721.06;;;5.84;100.00
31681;BME280;18281;51.364;9.566;2024-02-16T01:10:43;99723.97;;;5.77;100.00
31681;BME280;18281;51.364;9.566;2024-02-16T01:13:09;99729.31;;;5.96;100.00
31681;BME280;18281;51.364;9.566;2024-02-16T01:15:35;99733.19;;;5.85;100.00
31681;BME280;18281;51.364;9.566;2024-02-16T01:18:04;99737.50;;;5.86;100.00
31681;BME280;18281;51.364;9.566;2024-02-16T01:20:30;99744.28;;;5.90;100.00
31681;BME280;18281;51.364;9.566;2024-02-16T01:22:57;99740.56;;;5.96;100.00
31681;BME280;18281;51.364;9.566;2024-02-16T01:25:22;99739.59;;;5.77;100.00
31681;BME280;18281;51.364;9.566;2024-02-16T01:27:48;99734.75;;;5.67;100.00
31681;BME280;18281;51.364;9.566;2024-02-16T01:30:13;99735.19;;;5.56;100.00
31681;BME280;18281;51.364;9.566;2024-02-16T01:32:43;99735.00;;;5.39;100.00
31681;BME280;18281;51.364;9.566;2024-02-16T01:35:11;99740.16;;;5.63;100.00
31681;BME280;18281;51.364;9.566;2024-02-16T01:37:47;99739.81;;;5.72;100.00
31681;BME280;18281;51.364;9.566;2024-02-16T01:40:18;99731.00;;;5.75;100.00
31681;BME280;18281;51.364;9.566;2024-02-16T01:42:43;99731.09;;;5.73;100.00
31681;BME280;18281;51.364;9.566;2024-02-16T01:45:14;99743.66;;;5.62;100.00
31681;BME280;18281;51.364;9.566;2024-02-16T01:47:47;99737.19;;;5.72;100.00
31681;BME280;18281;51.364;9.566;2024-02-16T01:50:17;99734.69;;;5.47;100.00
31681;BME280;18281;51.364;9.566;2024-02-16T01:52:54;99736.84;;;5.35;100.00
31681;BME280;18281;51.364;9.566;2024-02-16T01:55:23;99730.00;;;5.33;100.00
31681;BME280;18281;51.364;9.566;2024-02-16T01:57:49;99736.75;;;5.38;100.00
31681;BME280;18281;51.364;9.566;2024-02-16T02:00:15;99735.38;;;5.52;100.00
31681;BME280;18281;51.364;9.566;2024-02-16T02:02:46;99739.22;;;5.42;100.00
31681;BME280;18281;51.364;9.566;2024-02-16T02:05:14;99738.03;;;5.50;100.00
31681;BME280;18281;51.364;9.566;2024-02-16T02:07:40;99733.97;;;5.43;100.00
31681;BME280;18281;51.364;9.566;2024-02-16T02:10:36;99739.91;;;5.47;100.00
31681;BME280;18281;51.364;9.566;2024-02-16T02:13:34;99740.31;;;5.58;100.00
31681;BME280;18281;51.364;9.566;2024-02-16T02:16:05;99744.63;;;5.59;100.00
31681;BME280;18281;51.364;9.566;2024-02-16T02:18:47;99738.94;;;5.49;100.00
31681;BME280;18281;51.364;9.566;2024-02-16T02:21:15;99740.66;;;5.50;100.00
31681;BME280;18281;51.364;9.566;2024-02-16T02:23:45;99726.28;;;5.40;100.00
31681;BME280;18281;51.364;9.566;2024-02-16T02:26:14;99731.41;;;5.42;100.00
31681;BME280;18281;51.364;9.566;2024-02-16T02:28:44;99718.63;;;5.35;100.00
31681;BME280;18281;51.364;9.566;2024-02-16T02:31:16;99713.13;;;5.43;100.00
31681;BME280;18281;51.364;9.566;2024-02-16T02:33:47;99713.94;;;5.45;100.00
31681;BME280;18281;51.364;9.566;2024-02-16T02:36:16;99698.88;;;5.30;100.00
31681;BME280;18281;51.364;9.566;2024-02-16T02:38:44;99695.50;;;5.28;100.00
31681;BME280;18281;51.364;9.566;2024-02-16T02:41:17;99693.56;;;5.33;100.00
31681;BME280;18281;51.364;9.566;2024-02-16T02:43:46;99697.22;;;5.27;100.00
31681;BME280;18281;51.364;9.566;2024-02-16T02:46:22;99703.75;;;5.39;100.00
31681;BME280;18281;51.364;9.566;2024-02-16T02:48:50;99702.97;;;5.37;100.00
31681;BME280;18281;51.364;9.566;2024-02-16T02:51:18;99703.88;;;5.36;100.00
31681;BME280;18281;51.364;9.566;2024-02-16T02:53:44;99703.22;;;5.29;100.00
31681;BME280;18281;51.364;9.566;2024-02-16T02:56:15;99699.16;;;5.46;100.00
31681;BME280;18281;51.364;9.566;2024-02-16T02:58:45;99689.81;;;5.40;100.00
31681;BME280;18281;51.364;9.566;2024-02-16T03:01:14;99697.44;;;5.45;100.00
31681;BME280;18281;51.364;9.566;2024-02-16T03:03:47;99691.84;;;5.32;100.00
31681;BME280;18281;51.364;9.566;2024-02-16T03:06:16;99696.59;;;5.44;100.00
31681;BME280;18281;51.364;9.566;2024-02-16T03:08:42;99688.59;;;5.27;100.00
31681;BME280;18281;51.364;9.566;2024-02-16T03:11:11;99688.25;;;5.36;100.00
31681;BME280;18281;51.364;9.566;2024-02-16T03:13:42;99695.50;;;5.28;100.00
31681;BME280;18281;51.364;9.566;2024-02-16T03:16:08;99697.72;;;5.38;100.00
31681;BME280;18281;51.364;9.566;2024-02-16T03:18:36;99690.16;;;5.31;100.00
31681;BME280;18281;51.364;9.566;2024-02-16T03:21:04;99696.59;;;5.44;100.00
31681;BME280;18281;51.364;9.566;2024-02-16T03:23:30;99687.00;;;5.46;100.00
31681;BME280;18281;51.364;9.566;2024-02-16T03:26:01;99682.03;;;5.16;100.00
31681;BME280;18281;51.364;9.566;2024-02-16T03:28:32;99681.41;;;5.10;100.00
31681;BME280;18281;51.364;9.566;2024-02-16T03:31:02;99684.34;;;5.24;100.00
31681;BME280;18281;51.364;9.566;2024-02-16T03:33:30;99691.75;;;5.35;100.00
31681;BME280;18281;51.364;9.566;2024-02-16T03:35:56;99692.56;;;5.37;100.00
31681;BME280;18281;51.364;9.566;2024-02-16T03:38:24;99688.31;;;5.11;100.00
31681;BME280;18281;51.364;9.566;2024-02-16T03:40:53;99681.06;;;5.19;100.00
31681;BME280;18281;51.364;9.566;2024-02-16T03:43:21;99686.25;;;5.19;100.00
31681;BME280;18281;51.364;9.566;2024-02-16T03:45:51;99688.25;;;5.12;100.00
31681;BME280;18281;51.364;9.566;2024-02-16T03:48:19;99681.66;;;5.03;100.00
31681;BME280;18281;51.364;9.566;2024-02-16T03:50:48;99685.03;;;5.05;100.00
31681;BME280;18281;51.364;9.566;2024-02-16T03:53:13;99685.38;;;4.96;100.00
31681;BME280;18281;51.364;9.566;2024-02-16T03:55:39;99689.69;;;4.97;100.00
31681;BME280;18281;51.364;9.566;2024-02-16T03:58:05;99688.66;;;5.01;100.00
31681;BME280;18281;51.364;9.566;2024-02-16T04:00:40;99694.59;;;5.05;100.00
31681;BME280;18281;51.364;9.566;2024-02-16T04:03:09;99687.03;;;4.99;100.00
31681;BME280;18281;51.364;9.566;2024-02-16T04:05:38;99691.66;;;4.90;100.00
31681;BME280;18281;51.364;9.566;2024-02-16T04:08:06;99683.25;;;5.07;100.00
31681;BME280;18281;51.364;9.566;2024-02-16T04:10:40;99687.44;;;4.88;100.00
31681;BME280;18281;51.364;9.566;2024-02-16T04:13:11;99684.69;;;4.91;100.00
31681;BME280;18281;51.364;9.566;2024-02-16T04:15:36;99688.94;;;4.94;100.00
31681;BME280;18281;51.364;9.566;2024-02-16T04:18:08;99684.69;;;4.91;100.00
31681;BME280;18281;51.364;9.566;2024-02-16T04:20:36;99689.97;;;4.89;100.00
31681;BME280;18281;51.364;9.566;2024-02-16T04:23:03;99695.97;;;4.92;100.00
31681;BME280;18281;51.364;9.566;2024-02-16T04:25:29;99685.97;;;4.81;100.00
31681;BME280;18281;51.364;9.566;2024-02-16T04:27:57;99684.31;;;4.78;100.00
31681;BME280;18281;51.364;9.566;2024-02-16T04:30:27;99698.16;;;4.79;100.00
31681;BME280;18281;51.364;9.566;2024-02-16T04:32:53;99690.44;;;4.77;100.00
31681;BME280;18281;51.364;9.566;2024-02-16T04:35:23;99688.72;;;4.76;100.00
31681;BME280;18281;51.364;9.566;2024-02-16T04:37:55;99685.63;;;4.66;100.00
31681;BME280;18281;51.364;9.566;2024-02-16T04:40:20;99688.22;;;4.66;100.00
31681;BME280;18281;51.364;9.566;2024-02-16T04:42:48;99686.56;;;4.64;100.00
31681;BME280;18281;51.364;9.566;2024-02-16T04:45:16;99686.06;;;4.78;100.00
31681;BME280;18281;51.364;9.566;2024-02-16T04:47:47;99689.28;;;4.61;100.00
31681;BME280;18281;51.364;9.566;2024-02-16T04:50:13;99687.41;;;4.64;100.00
31681;BME280;18281;51.364;9.566;2024-02-16T04:52:41;99682.50;;;4.56;100.00
31681;BME280;18281;51.364;9.566;2024-02-16T04:55:07;99678.22;;;4.55;100.00
31681;BME280;18281;51.364;9.566;2024-02-16T04:57:40;99682.19;;;4.66;100.00
31681;BME280;18281;51.364;9.566;2024-02-16T05:00:07;99678.84;;;4.62;100.00
31681;BME280;18281;51.364;9.566;2024-02-16T05:02:34;99682.00;;;4.70;100.00
31681;BME280;18281;51.364;9.566;2024-02-16T05:05:03;99683.91;;;4.65;100.00
31681;BME280;18281;51.364;9.566;2024-02-16T05:07:28;99690.97;;;4.62;100.00
31681;BME280;18281;51.364;9.566;2024-02-16T05:09:56;99685.31;;;4.50;100.00
31681;BME280;18281;51.364;9.566;2024-02-16T05:12:24;99687.72;;;4.56;100.00
31681;BME280;18281;51.364;9.566;2024-02-16T05:14:55;99687.22;;;4.45;100.00
31681;BME280;18281;51.364;9.566;2024-02-16T05:17:22;99692.78;;;4.60;100.00
31681;BME280;18281;51.364;9.566;2024-02-16T05:19:51;99686.75;;;4.59;100.00
31681;BME280;18281;51.364;9.566;2024-02-16T05:22:18;99685.06;;;4.58;100.00
31681;BME280;18281;51.364;9.566;2024-02-16T05:24:46;99680.06;;;4.52;100.00
31681;BME280;18281;51.364;9.566;2024-02-16T05:27:13;99674.22;;;4.45;100.00
31681;BME280;18281;51.364;9.566;2024-02-16T05:29:44;99672.13;;;4.56;100.00
31681;BME280;18281;51.364;9.566;2024-02-16T05:32:10;99670.56;;;4.51;100.00
31681;BME280;18281;51.364;9.566;2024-02-16T05:34:39;99672.44;;;4.47;100.00
31681;BME280;18281;51.364;9.566;2024-02-16T05:37:07;99661.81;;;4.53;100.00
31681;BME280;18281;51.364;9.566;2024-02-16T05:39:36;99661.03;;;4.51;100.00
31681;BME280;18281;51.364;9.566;2024-02-16T05:42:18;99664.88;;;4.65;100.00
31681;BME280;18281;51.364;9.566;2024-02-16T05:44:55;99666.13;;;4.78;100.00
31681;BME280;18281;51.364;9.566;2024-02-16T05:47:23;99666.16;;;4.53;100.00
31681;BME280;18281;51.364;9.566;2024-02-16T05:49:48;99664.81;;;4.66;100.00
31681;BME280;18281;51.364;9.566;2024-02-16T05:52:14;99659.31;;;4.50;100.00
31681;BME280;18281;51.364;9.566;2024-02-16T05:54:46;99653.38;;;4.47;100.00
31681;BME280;18281;51.364;9.566;2024-02-16T05:57:21;99659.31;;;5.44;100.00
31681;BME280;18281;51.364;9.566;2024-02-16T05:59:54;99658.09;;;6.55;100.00
31681;BME280;18281;51.364;9.566;2024-02-16T06:02:22;99656.97;;;7.01;100.00
31681;BME280;18281;51.364;9.566;2024-02-16T06:04:51;99657.84;;;7.38;100.00
31681;BME280;18281;51.364;9.566;2024-02-16T06:07:16;99664.59;;;7.24;100.00
31681;BME280;18281;51.364;9.566;2024-02-16T06:09:44;99657.50;;;6.69;100.00
31681;BME280;18281;51.364;9.566;2024-02-16T06:12:09;99656.31;;;6.37;100.00
31681;BME280;18281;51.364;9.566;2024-02-16T06:14:36;99666.41;;;6.03;100.00
31681;BME280;18281;51.364;9.566;2024-02-16T06:17:02;99666.41;;;5.83;100.00
31681;BME280;18281;51.364;9.566;2024-02-16T06:19:30;99653.72;;;5.75;100.00
31681;BME280;18281;51.364;9.566;2024-02-16T06:22:07;99656.38;;;5.73;100.00
31681;BME280;18281;51.364;9.566;2024-02-16T06:24:36;99650.72;;;5.64;100.00
31681;BME280;18281;51.364;9.566;2024-02-16T06:27:04;99643.44;;;5.50;100.00
31681;BME280;18281;51.364;9.566;2024-02-16T06:29:33;99637.25;;;5.52;100.00
31681;BME280;18281;51.364;9.566;2024-02-16T06:32:06;99621.09;;;5.44;100.00
31681;BME280;18281;51.364;9.566;2024-02-16T06:34:39;99612.88;;;5.33;100.00
31681;BME280;18281;51.364;9.566;2024-02-16T06:37:08;99615.69;;;5.49;100.00
31681;BME280;18281;51.364;9.566;2024-02-16T06:39:36;99626.69;;;5.35;100.00
31681;BME280;18281;51.364;9.566;2024-02-16T06:42:02;99642.34;;;5.33;100.00
31681;BME280;18281;51.364;9.566;2024-02-16T06:44:30;99662.78;;;5.20;100.00
31681;BME280;18281;51.364;9.566;2024-02-16T06:46:56;99679.25;;;5.21;100.00
31681;BME280;18281;51.364;9.566;2024-02-16T06:49:23;99685.00;;;5.29;100.00
31681;BME280;18281;51.364;9.566;2024-02-16T06:51:55;99698.44;;;5.18;100.00
31681;BME280;18281;51.364;9.566;2024-02-16T06:54:23;99698.19;;;5.24;100.00
31681;BME280;18281;51.364;9.566;2024-02-16T06:56:58;99698.50;;;5.83;100.00
31681;BME280;18281;51.364;9.566;2024-02-16T07:02:56;99695.31;;;6.40;100.00
31681;BME280;18281;51.364;9.566;2024-02-16T07:05:21;99692.56;;;6.43;100.00
31681;BME280;18281;51.364;9.566;2024-02-16T07:07:57;99703.63;;;6.28;100.00
31681;BME280;18281;51.364;9.566;2024-02-16T07:10:27;99706.84;;;6.14;100.00
31681;BME280;18281;51.364;9.566;2024-02-16T07:13:08;99709.09;;;6.01;100.00
31681;BME280;18281;51.364;9.566;2024-02-16T07:15:34;99708.28;;;5.78;100.00
31681;BME280;18281;51.364;9.566;2024-02-16T07:18:02;99710.03;;;5.78;100.00
31681;BME280;18281;51.364;9.566;2024-02-16T07:20:29;99709.56;;;5.68;100.00
31681;BME280;18281;51.364;9.566;2024-02-16T07:22:54;99715.75;;;5.65;100.00
31681;BME280;18281;51.364;9.566;2024-02-16T07:25:20;99704.47;;;5.65;100.00
31681;BME280;18281;51.364;9.566;2024-02-16T07:27:48;99713.09;;;5.67;100.00
31681;BME280;18281;51.364;9.566;2024-02-16T07:30:21;99711.56;;;5.61;100.00
31681;BME280;18281;51.364;9.566;2024-02-16T07:32:50;99717.63;;;5.62;100.00
31681;BME280;18281;51.364;9.566;2024-02-16T07:35:22;99718.50;;;5.62;100.00
31681;BME280;18281;51.364;9.566;2024-02-16T07:37:50;99713.22;;;5.64;100.00
31681;BME280;18281;51.364;9.566;2024-02-16T07:40:19;99713.81;;;5.70;100.00
31681;BME280;18281;51.364;9.566;2024-02-16T07:42:45;99716.59;;;5.66;100.00
31681;BME280;18281;51.364;9.566;2024-02-16T07:45:14;99721.81;;;5.66;100.00
31681;BME280;18281;51.364;9.566;2024-02-16T07:47:46;99725.44;;;5.62;100.00
31681;BME280;18281;51.364;9.566;2024-02-16T07:50:21;99727.19;;;5.61;100.00
31681;BME280;18281;51.364;9.566;2024-02-16T07:53:03;99713.22;;;5.64;100.00
31681;BME280;18281;51.364;9.566;2024-02-16T07:55:29;99718.22;;;5.68;100.00
31681;BME280;18281;51.364;9.566;2024-02-16T07:57:58;99721.19;;;5.81;100.00
31681;BME280;18281;51.364;9.566;2024-02-16T08:00:36;99716.22;;;5.75;100.00
31681;BME280;18281;51.364;9.566;2024-02-16T08:03:22;99711.88;;;5.76;100.00
31681;BME280;18281;51.364;9.566;2024-02-16T08:05:48;99711.75;;;5.79;100.00
31681;BME280;18281;51.364;9.566;2024-02-16T08:08:19;99725.44;;;5.84;100.00
31681;BME280;18281;51.364;9.566;2024-02-16T08:10:48;99728.94;;;5.83;100.00
31681;BME280;18281;51.364;9.566;2024-02-16T08:13:14;99727.59;;;5.95;100.00
31681;BME280;18281;51.364;9.566;2024-02-16T08:15:45;99730.06;;;5.98;100.00
31681;BME280;18281;51.364;9.566;2024-02-16T08:19:13;99728.19;;;6.01;100.00
31681;BME280;18281;51.364;9.566;2024-02-16T08:21:32;99728.63;;;6.33;100.00
31681;BME280;18281;51.364;9.566;2024-02-16T08:24:00;99728.03;;;6.27;100.00
31681;BME280;18281;51.364;9.566;2024-02-16T08:26:31;99729.78;;;6.47;100.00
31681;BME280;18281;51.364;9.566;2024-02-16T08:28:59;99723.31;;;6.55;100.00
31681;BME280;18281;51.364;9.566;2024-02-16T08:31:24;99727.16;;;6.67;100.00
31681;BME280;18281;51.364;9.566;2024-02-16T08:33:50;99729.22;;;6.80;100.00
31681;BME280;18281;51.364;9.566;2024-02-16T08:36:15;99738.66;;;6.82;100.00
31681;BME280;18281;51.364;9.566;2024-02-16T08:38:41;99746.63;;;6.79;100.00
31681;BME280;18281;51.364;9.566;2024-02-16T08:41:06;99746.50;;;6.82;100.00
31681;BME280;18281;51.364;9.566;2024-02-16T08:43:32;99741.28;;;6.82;100.00
31681;BME280;18281;51.364;9.566;2024-02-16T08:45:57;99745.25;;;6.91;100.00
31681;BME280;18281;51.364;9.566;2024-02-16T08:48:24;99745.19;;;6.93;100.00
31681;BME280;18281;51.364;9.566;2024-02-16T08:50:50;99749.50;;;6.94;100.00
31681;BME280;18281;51.364;9.566;2024-02-16T08:53:16;99752.94;;;6.94;100.00
31681;BME280;18281;51.364;9.566;2024-02-16T08:55:42;99751.75;;;7.01;100.00
31681;BME280;18281;51.364;9.566;2024-02-16T08:58:08;99748.41;;;6.99;100.00
31681;BME280;18281;51.364;9.566;2024-02-16T09:00:34;99744.72;;;7.03;100.00
31681;BME280;18281;51.364;9.566;2024-02-16T09:02:59;99750.78;;;7.04;100.00
31681;BME280;18281;51.364;9.566;2024-02-16T09:05:27;99748.88;;;7.07;100.00
31681;BME280;18281;51.364;9.566;2024-02-16T09:07:53;99755.88;;;7.07;100.00
31681;BME280;18281;51.364;9.566;2024-02-16T09:10:18;99753.28;;;7.07;100.00
31681;BME280;18281;51.364;9.566;2024-02-16T09:12:43;99759.09;;;7.12;100.00
31681;BME280;18281;51.364;9.566;2024-02-16T09:15:09;99757.28;;;7.14;100.00
31681;BME280;18281;51.364;9.566;2024-02-16T09:17:35;99758.00;;;7.18;100.00
31681;BME280;18281;51.364;9.566;2024-02-16T09:20:00;99761.31;;;7.21;100.00
31681;BME280;18281;51.364;9.566;2024-02-16T09:22:26;99749.13;;;7.22;100.00
31681;BME280;18281;51.364;9.566;2024-02-16T09:24:51;99758.56;;;7.24;100.00
31681;BME280;18281;51.364;9.566;2024-02-16T09:27:17;99765.34;;;7.29;100.00
31681;BME280;18281;51.364;9.566;2024-02-16T09:29:44;99766.25;;;7.28;100.00
31681;BME280;18281;51.364;9.566;2024-02-16T09:32:10;99759.06;;;7.33;100.00
31681;BME280;18281;51.364;9.566;2024-02-16T09:34:35;99750.38;;;7.32;100.00
31681;BME280;18281;51.364;9.566;2024-02-16T09:37:00;99755.88;;;7.45;100.00
31681;BME280;18281;51.364;9.566;2024-02-16T09:39:27;99757.78;;;7.41;100.00
31681;BME280;18281;51.364;9.566;2024-02-16T09:41:53;99759.00;;;7.34;100.00
31681;BME280;18281;51.364;9.566;2024-02-16T09:44:22;99752.19;;;7.49;100.00
31681;BME280;18281;51.364;9.566;2024-02-16T09:46:47;99759.28;;;7.47;100.00
31681;BME280;18281;51.364;9.566;2024-02-16T09:49:13;99751.84;;;7.57;100.00
31681;BME280;18281;51.364;9.566;2024-02-16T09:51:38;99751.34;;;7.68;100.00
31681;BME280;18281;51.364;9.566;2024-02-16T09:54:04;99756.41;;;7.71;100.00
31681;BME280;18281;51.364;9.566;2024-02-16T09:56:30;99759.09;;;7.69;100.00
31681;BME280;18281;51.364;9.566;2024-02-16T09:58:55;99752.69;;;7.77;100.00
31681;BME280;18281;51.364;9.566;2024-02-16T10:01:23;99750.81;;;7.79;100.00
31681;BME280;18281;51.364;9.566;2024-02-16T10:03:50;99749.19;;;7.76;100.00
31681;BME280;18281;51.364;9.566;2024-02-16T10:06:16;99748.75;;;7.85;100.00
31681;BME280;18281;51.364;9.566;2024-02-16T10:08:52;99740.09;;;8.02;100.00
31681;BME280;18281;51.364;9.566;2024-02-16T10:11:20;99740.84;;;8.04;100.00
31681;BME280;18281;51.364;9.566;2024-02-16T10:14:03;99736.63;;;8.02;100.00
31681;BME280;18281;51.364;9.566;2024-02-16T10:17:01;99737.78;;;8.14;100.00
31681;BME280;18281;51.364;9.566;2024-02-16T10:19:29;99733.25;;;8.00;100.00
31681;BME280;18281;51.364;9.566;2024-02-16T10:22:13;99739.78;;;8.08;100.00
31681;BME280;18281;51.364;9.566;2024-02-16T10:24:41;99748.41;;;8.11;100.00
31681;BME280;18281;51.364;9.566;2024-02-16T10:27:19;99743.88;;;8.14;100.00
31681;BME280;18281;51.364;9.566;2024-02-16T10:29:47;99744.88;;;8.29;100.00
31681;BME280;18281;51.364;9.566;2024-02-16T10:32:23;99741.56;;;8.25;100.00
31681;BME280;18281;51.364;9.566;2024-02-16T10:35:00;99744.38;;;8.40;100.00
31681;BME280;18281;51.364;9.566;2024-02-16T10:37:30;99747.50;;;8.47;100.00
31681;BME280;18281;51.364;9.566;2024-02-16T10:39:59;99750.97;;;8.47;100.00
31681;BME280;18281;51.364;9.566;2024-02-16T10:42:29;99750.19;;;8.63;100.00
31681;BME280;18281;51.364;9.566;2024-02-16T10:44:56;99753.84;;;8.76;100.00
31681;BME280;18281;51.364;9.566;2024-02-16T10:47:25;99758.66;;;8.68;100.00
31681;BME280;18281;51.364;9.566;2024-02-16T10:50:05;99757.84;;;8.83;100.00
31681;BME280;18281;51.364;9.566;2024-02-16T10:52:36;99752.59;;;8.83;100.00
31681;BME280;18281;51.364;9.566;2024-02-16T10:55:04;99757.69;;;8.86;100.00
31681;BME280;18281;51.364;9.566;2024-02-16T10:57:38;99748.66;;;8.92;100.00
31681;BME280;18281;51.364;9.566;2024-02-16T11:00:10;99751.59;;;8.86;100.00
31681;BME280;18281;51.364;9.566;2024-02-16T11:02:58;99756.22;;;8.81;100.00
31681;BME280;18281;51.364;9.566;2024-02-16T11:05:43;99766.75;;;8.97;100.00
31681;BME280;18281;51.364;9.566;2024-02-16T11:08:24;99771.97;;;8.97;100.00
31681;BME280;18281;51.364;9.566;2024-02-16T11:11:02;99765.84;;;9.14;100.00
31681;BME280;18281;51.364;9.566;2024-02-16T11:13:39;99773.78;;;9.12;100.00
31681;BME280;18281;51.364;9.566;2024-02-16T11:16:08;99769.91;;;9.19;100.00
31681;BME280;18281;51.364;9.566;2024-02-16T11:18:41;99768.22;;;9.18;100.00
31681;BME280;18281;51.364;9.566;2024-02-16T11:21:15;99769.72;;;9.22;100.00
31681;BME280;18281;51.364;9.566;2024-02-16T11:23:45;99769.81;;;9.21;100.00
31681;BME280;18281;51.364;9.566;2024-02-16T11:26:13;99764.66;;;9.19;100.00
31681;BME280;18281;51.364;9.566;2024-02-16T11:28:42;99759.25;;;9.22;100.00
31681;BME280;18281;51.364;9.566;2024-02-16T11:31:08;99760.53;;;9.31;100.00
31681;BME280;18281;51.364;9.566;2024-02-16T11:33:34;99765.97;;;9.28;100.00
31681;BME280;18281;51.364;9.566;2024-02-16T11:36:04;99767.41;;;9.34;100.00
31681;BME280;18281;51.364;9.566;2024-02-16T11:38:31;99778.31;;;9.42;100.00
31681;BME280;18281;51.364;9.566;2024-02-16T11:41:05;99765.59;;;9.34;100.00
31681;BME280;18281;51.364;9.566;2024-02-16T11:43:31;99757.25;;;9.28;100.00
31681;BME280;18281;51.364;9.566;2024-02-16T11:45:58;99766.53;;;9.49;100.00
31681;BME280;18281;51.364;9.566;2024-02-16T11:48:26;99765.88;;;9.46;100.00
31681;BME280;18281;51.364;9.566;2024-02-16T11:51:02;99759.53;;;9.50;100.00
31681;BME280;18281;51.364;9.566;2024-02-16T11:53:28;99770.84;;;9.50;100.00
31681;BME280;18281;51.364;9.566;2024-02-16T11:55:54;99762.34;;;9.47;100.00
31681;BME280;18281;51.364;9.566;2024-02-16T11:58:20;99766.47;;;9.51;100.00
31681;BME280;18281;51.364;9.566;2024-02-16T12:00:50;99759.28;;;9.54;100.00
31681;BME280;18281;51.364;9.566;2024-02-16T12:03:23;99759.28;;;9.38;100.00
31681;BME280;18281;51.364;9.566;2024-02-16T12:05:53;99767.63;;;9.45;100.00
31681;BME280;18281;51.364;9.566;2024-02-16T12:08:19;99766.72;;;9.46;100.00
31681;BME280;18281;51.364;9.566;2024-02-16T12:10:49;99768.84;;;9.55;100.00
31681;BME280;18281;51.364;9.566;2024-02-16T12:13:20;99760.97;;;9.55;100.00
31681;BME280;18281;51.364;9.566;2024-02-16T12:15:49;99768.28;;;9.66;100.00
31681;BME280;18281;51.364;9.566;2024-02-16T12:18:22;99770.81;;;9.68;100.00
31681;BME280;18281;51.364;9.566;2024-02-16T12:20:59;99776.47;;;9.60;100.00
31681;BME280;18281;51.364;9.566;2024-02-16T12:23:25;99780.63;;;9.80;100.00
31681;BME280;18281;51.364;9.566;2024-02-16T12:25:50;99781.91;;;10.19;100.00
31681;BME280;18281;51.364;9.566;2024-02-16T12:28:16;99781.88;;;10.50;100.00
31681;BME280;18281;51.364;9.566;2024-02-16T12:30:41;99780.06;;;10.36;100.00
31681;BME280;18281;51.364;9.566;2024-02-16T12:33:07;99783.03;;;10.30;100.00
31681;BME280;18281;51.364;9.566;2024-02-16T12:35:32;99783.31;;;10.25;100.00
31681;BME280;18281;51.364;9.566;2024-02-16T12:37:59;99789.94;;;10.16;100.00
31681;BME280;18281;51.364;9.566;2024-02-16T12:40:24;99792.41;;;10.19;100.00
31681;BME280;18281;51.364;9.566;2024-02-16T12:42:50;99791.63;;;10.17;100.00
31681;BME280;18281;51.364;9.566;2024-02-16T12:45:15;99787.41;;;10.15;100.00
31681;BME280;18281;51.364;9.566;2024-02-16T12:47:41;99785.63;;;10.15;100.00
31681;BME280;18281;51.364;9.566;2024-02-16T12:50:10;99782.06;;;10.16;100.00
31681;BME280;18281;51.364;9.566;2024-02-16T12:52:35;99783.09;;;10.14;100.00
31681;BME280;18281;51.364;9.566;2024-02-16T12:55:05;99787.78;;;10.08;100.00
31681;BME280;18281;51.364;9.566;2024-02-16T12:57:30;99784.19;;;10.09;100.00
31681;BME280;18281;51.364;9.566;2024-02-16T12:59:56;99793.09;;;10.07;100.00
31681;BME280;18281;51.364;9.566;2024-02-16T13:02:21;99798.91;;;10.12;100.00
31681;BME280;18281;51.364;9.566;2024-02-16T13:04:47;99804.16;;;10.12;100.00
31681;BME280;18281;51.364;9.566;2024-02-16T13:07:12;99802.81;;;10.05;100.00
31681;BME280;18281;51.364;9.566;2024-02-16T13:09:38;99810.59;;;10.06;100.00
31681;BME280;18281;51.364;9.566;2024-02-16T13:12:03;99809.25;;;10.15;100.00
31681;BME280;18281;51.364;9.566;2024-02-16T13:14:32;99813.63;;;10.15;100.00